Updated18/02/2019 10:19pm 
 

Nearby Airport METAR Reports

 

KVSF - Springfield, Vermont, USA
Distance from station: WSW 8mi, 12km
Updated: 02/18/2019 9:54pm
Clear
Clear
 Wind from WNW
Wind: WNW 5 mph , 7 km/h
Temperature: 9°F , -13°C
Wind Chill: 0°F , -18°C
Dew Point: 3°F , -16°C
Humidity: 78%
Barometer: 30.21 inHg , 1023 hPa
Clouds: Clear
Visibility: 10 miles , 16 km
2019/02/19 02:54 KVSF 190254Z AUTO 29004KT 10SM CLR M13/M16 A3021 RMK AO2 SLP244 T11281156 51044
KLEB - Lebanon, New Hampshire, USA
Distance from station: N 18mi, 29km
Updated: 02/18/2019 9:53pm
Clear
Clear
 Wind from NW
Wind: NW 6 mph , 9 km/h
Temperature: 12°F , -11°C
Wind Chill: 2°F , -17°C
Dew Point: -2°F , -19°C
Humidity: 52%
Barometer: 30.20 inHg , 1022.7 hPa
Clouds: Clear
Visibility: 10 miles , 16 km
2019/02/19 02:53 KLEB 190253Z 31005KT 10SM CLR M11/M19 A3020 RMK AO2 SLP242 T11061189 51041
KRUT - Rutland State, Vermont, USA
Distance from station: WNW 31mi, 50km
Updated: 02/18/2019 9:56pm
Clear
Clear
 Wind from calm
Wind: Calm
Temperature: 3°F , -16°C
Dew Point: -0°F , -18°C
Humidity: 85%
Barometer: 30.23 inHg , 1023.7 hPa
Clouds: Clear
Visibility: 10 miles , 16 km
2019/02/19 02:56 KRUT 190256Z AUTO 00000KT 10SM CLR M16/M18 A3023 RMK AO2 SLP261 T11561178 51038 FZRANO $
 
KEEN - Keene/Dillant, New Hampshire, USA
Distance from station: S 34mi, 55km
Updated: 02/18/2019 9:56pm
Clear
Clear
 Wind from NNW
Wind: NNW 9 mph , 15 km/h
Temperature: 16°F , -9°C
Wind Chill: 5°F , -15°C
Dew Point: 7°F , -14°C
Humidity: 67%
Barometer: 30.20 inHg , 1022.7 hPa
Clouds: Clear
Visibility: 10 miles , 16 km
2019/02/19 02:56 KEEN 190256Z AUTO 34008KT 10SM CLR M09/M14 A3020 RMK AO2 SLP250 T10891139 51048 FZRANO $
K1P1 - Plymouth, New Hampshire, USA
Distance from station: NE 42mi, 67km
Updated: 02/18/2019 10:15pm
Clear
Clear
 Wind from NNW
Wind: NNW 5 mph , 7 km/h
Temperature: 12°F , -11°C
Wind Chill: 4°F , -16°C
Dew Point: -0°F , -18°C
Humidity: 57%
Barometer: 30.18 inHg , 1022 hPa
Clouds: Clear
Visibility: 10 miles , 16 km
2019/02/19 03:15 K1P1 190315Z AUTO 33004KT 10SM CLR M11/M18 A3018 RMK AO2 T11111177
KAFN - Jaffrey, New Hampshire, USA
Distance from station: SSE 44mi, 70km
Updated: 02/18/2019 9:52pm
Clear
Clear
 Wind from varies
Wind: varies 5 mph , 7 km/h
Temperature: 16°F , -9°C
Wind Chill: 8°F , -13°C
Dew Point: 7°F , -14°C
Humidity: 67%
Barometer: 30.12 inHg , 1020 hPa
Clouds: Clear
Visibility: 10 miles , 16 km
2019/02/19 02:52 KAFN 190252Z AUTO VRB04KT 10SM CLR M09/M14 A3012 RMK AO2 SLP223 T10891144 51046
 
KCON - Concord, New Hampshire, USA
Distance from station: ESE 45mi, 73km
Updated: 02/18/2019 9:51pm
Clear
Clear
 Wind from NW
Wind: NW 16 mph , 26 km/h
Temperature: 16°F , -9°C
Wind Chill: 1°F , -17°C
Dew Point: 3°F , -16°C
Humidity: 57%
Barometer: 30.17 inHg , 1021.7 hPa
Clouds: Clear
Visibility: 10 miles , 16 km
2019/02/19 02:51 KCON 190251Z AUTO 32014KT 10SM CLR M09/M16 A3017 RMK AO2 PK WND 32027/0210 SLP224 T10891156 51052
KLCI - Laconia Muni, New Hampshire, USA
Distance from station: ENE 49mi, 80km
Updated: 02/18/2019 9:56pm
Clear
Clear
 Wind from WNW
Wind: WNW 8 mph , 13 km/h
Temperature: 12°F , -11°C
Wind Chill: 0°F , -18°C
Dew Point: 1°F , -17°C
Humidity: 62%
Barometer: 30.15 inHg , 1021 hPa
Clouds: Clear
Visibility: 10 miles , 16 km
2019/02/19 02:56 KLCI 190256Z AUTO 29007KT 260V330 10SM CLR M11/M17 A3015 RMK AO2 SNB14E28 SLP231 P0000 60000 T11061167 51051 FZRANO $
KDDH - Bennington, Vermont, USA
Distance from station: SW 55mi, 89km
Updated: 02/18/2019 9:54pm
Few Clouds
Few Clouds
 Wind from varies
Wind: varies 5 mph , 7 km/h
Temperature: 12°F , -11°C
Wind Chill: 4°F , -16°C
Dew Point: 3°F , -16°C
Humidity: 67%
Barometer: 30.23 inHg , 1023.7 hPa
Clouds: Few Clouds
Visibility: 10 miles , 16 km
Cloud details: Few Clouds 3300 ft
2019/02/19 02:54 KDDH 190254Z AUTO VRB04KT 10SM FEW033 M11/M16 A3023 RMK AO2 SLP250 T11061161 51045
 
K6B0 - Middlebury, Vermont, USA
Distance from station: NW 56mi, 90km
Updated: 02/18/2019 10:15pm
Clear
Clear
 Wind from calm
Wind: Calm
Temperature: 5°F , -15°C
Dew Point: -0°F , -18°C
Humidity: 78%
Barometer: 30.26 inHg , 1024.7 hPa
Clouds: Clear
Visibility: 10 miles , 16 km
2019/02/19 03:15 K6B0 190315Z AUTO 00000KT 10SM CLR M15/M18 A3026 RMK AO2 T11541179
KMHT - Manchester, New Hampshire, USA
Distance from station: ESE 56mi, 90km
Updated: 02/18/2019 9:53pm
Clear
Clear
 Wind from NW
Wind: NW 15 mph , 24 km/h, Gust: 25 mph , 41 km/h
Temperature: 19°F , -7°C
Wind Chill: 5°F , -15°C
Dew Point: 5°F , -15°C
Humidity: 53%
Barometer: 30.16 inHg , 1021.3 hPa
Clouds: Clear
Visibility: 10 miles , 16 km
2019/02/19 02:53 KMHT 190253Z 32013G22KT 10SM CLR M07/M15 A3016 RMK AO2 SLP233 60000 T10671150 51051 $
KORE - Orange, Massachusetts, USA
Distance from station: S 56mi, 90km
Updated: 02/18/2019 9:52pm
Clear
Clear
 
Temperature: 19°F , -7°C
Dew Point: 7°F , -14°C
Humidity: 58%
Barometer: 30.19 inHg , 1022.4 hPa
Clouds: Clear
Visibility: 10 miles , 16 km
2019/02/19 02:52 KORE 190252Z AUTO 10SM CLR M07/M14 A3019 RMK AO2 SLP231 T10671139 51047
 
KMPV - Montpelier/Barre, Vermont, USA
Distance from station: N 58mi, 93km
Updated: 02/18/2019 9:51pm
Clear
Clear
 Wind from NNW
Wind: NNW 6 mph , 9 km/h
Temperature: 5°F , -15°C
Wind Chill: -6°F , -21°C
Dew Point: -0°F , -18°C
Humidity: 78%
Barometer: 30.19 inHg , 1022.4 hPa
Clouds: Clear
Visibility: 10 miles , 16 km
2019/02/19 02:51 KMPV 190251Z AUTO 33005KT 10SM CLR M15/M18 A3019 RMK AO2 SLP252 T11501183 51028
KASH - Nashua/Boire Fld, New Hampshire, USA
Distance from station: SE 59mi, 95km
Updated: 02/18/2019 9:56pm
Clear
Clear
 Wind from NW
Wind: NW 16 mph , 26 km/h, Gust: 25 mph , 41 km/h
Temperature: 21°F , -6°C
Wind Chill: 7°F , -14°C
Dew Point: 9°F , -13°C
Humidity: 58%
Barometer: 30.17 inHg , 1021.7 hPa
Clouds: Clear
Visibility: 10 miles , 16 km
2019/02/19 02:56 KASH 190256Z AUTO 31014G22KT 10SM CLR M06/M13 A3017 RMK AO2 SLP230 T10611133 53049 FZRANO $
KAQW - North Adams, Massachusetts, USA
Distance from station: SW 62mi, 99km
Updated: 02/18/2019 9:52pm
Light snow, Overcast
Light snow, Overcast
 Wind from W
Wind: W 13 mph , 20 km/h
Temperature: 16°F , -9°C
Wind Chill: 2°F , -17°C
Dew Point: 9°F , -13°C
Humidity: 73%
Barometer: 30.24 inHg , 1024 hPa
Summary: Light Snow
Clouds: Overcast
Visibility: 8 miles , 13 km
Cloud details: Overcast 2400 ft
2019/02/19 02:52 KAQW 190252Z AUTO 27011KT 8SM -SN OVC024 M09/M13 A3024 RMK AO2 SLP251 P0000 60000 T10891133 51044
 
KGFL - Glens Falls, New York, USA
Distance from station: W 63mi, 101km
Updated: 02/18/2019 9:53pm
Clear
Clear
 Wind from calm
Wind: Calm
Temperature: 1°F , -17°C
Dew Point: -4°F , -20°C
Humidity: 78%
Barometer: 30.28 inHg , 1025.4 hPa
Clouds: Clear
Visibility: 10 miles , 16 km
2019/02/19 02:53 KGFL 190253Z AUTO 00000KT 10SM CLR M17/M20 A3028 RMK AO2 SLP269 I1000 I3000 T11721200 51038
KFIT - Fitchburg, Massachusetts, USA
Distance from station: SSE 65mi, 105km
Updated: 02/18/2019 9:52pm
Clear
Clear
 Wind from NW
Wind: NW 15 mph , 24 km/h
Temperature: 19°F , -7°C
Wind Chill: 5°F , -15°C
Dew Point: 9°F , -13°C
Humidity: 63%
Barometer: 30.17 inHg , 1021.7 hPa
Clouds: Clear
Visibility: 10 miles , 16 km
2019/02/19 02:52 KFIT 190252Z AUTO 31013KT 10SM CLR M07/M13 A3017 RMK AO2 SLP223 T10671133 53050
KDAW - Rochester, New Hampshire, USA
Distance from station: E 73mi, 118km
Updated: 02/18/2019 9:51pm
Clear
Clear
 Wind from WNW
Wind: WNW 16 mph , 26 km/h, Gust: 26 mph , 43 km/h
Temperature: 19°F , -7°C
Wind Chill: 4°F , -16°C
Dew Point: 9°F , -13°C
Humidity: 63%
Barometer: 30.10 inHg , 1019.3 hPa
Clouds: Clear
Visibility: 10 miles , 16 km
2019/02/19 02:51 KDAW 190251Z AUTO 30014G23KT 10SM CLR M07/M13 A3010 RMK AO2 SLP195 T10721133 51043
 
K1V4 - St. Johnsbury, Vermont, USA
Distance from station: NNE 74mi, 119km
Updated: 02/18/2019 9:54pm

 
Temperature: 3°F , -16°C
Dew Point: 1°F , -17°C
Humidity: 92%
Barometer: 30.17 inHg , 1021.7 hPa
2019/02/19 02:54 K1V4 190254Z AUTO M16/M17 A3017 RMK AO1 SLP241 T11561172 51033
KLWM - Lawrence, Massachusetts, USA
Distance from station: SE 77mi, 124km
Updated: 02/18/2019 9:54pm
Clear
Clear
 Wind from WNW
Wind: WNW 21 mph , 33 km/h, Gust: 31 mph , 50 km/h
Temperature: 21°F , -6°C
Wind Chill: 5°F , -15°C
Dew Point: 7°F , -14°C
Humidity: 54%
Barometer: 30.16 inHg , 1021.3 hPa
Clouds: Clear
Visibility: 10 miles , 16 km
2019/02/19 02:54 KLWM 190254Z 30018G27KT 10SM CLR M06/M14 A3016 RMK AO2 PK WND 30027/0254 SLP214 T10611139 52045



Flag Counter
free counter page views since 4/29/2009